Time,TemperatureF,DewpointF,PressureIn,WindDirection,WindDirectionDegrees,WindSpeedMPH,WindSpeedGustMPH,Humidity,HourlyPrecipIn,Conditions,Clouds,dailyrainin,SoftwareType,DateUTC
2013-01-09 00:00:00,68.6,65.2,30.18,NE,56,2.0,0.0,89,0.00,CLR,OVC,0.01,WeatherDisplay:10.37,2013-01-09 05:00:00,
2013-01-09 00:04:00,68.6,65.2,30.18,NE,56,2.0,0.0,89,0.00,RA,OVC,0.00,WeatherDisplay:10.37,2013-01-09 05:04:00,
2013-01-09 00:09:00,68.4,66.6,30.20,NE,49,4.0,4.6,94,0.00,RA,OVC,0.00,WeatherDisplay:10.37,2013-01-09 05:09:00,
2013-01-09 00:14:00,68.4,66.6,30.19,NE,42,5.0,0.0,94,0.00,CLR,OVC,0.00,WeatherDisplay:10.37,2013-01-09 05:14:00,
2013-01-09 00:19:00,68.4,66.6,30.19,NE,38,3.0,3.5,94,0.00,CLR,OVC,0.00,WeatherDisplay:10.37,2013-01-09 05:19:00,
2013-01-09 00:24:00,68.4,66.6,30.19,NE,37,0.0,0.0,94,0.00,CLR,OVC,0.00,WeatherDisplay:10.37,2013-01-09 05:24:00,
2013-01-09 00:29:00,68.4,66.6,30.19,NE,52,0.0,0.0,94,0.00,CLR,OVC,0.00,WeatherDisplay:10.37,2013-01-09 05:29:00,
2013-01-09 00:34:00,68.4,66.6,30.19,NE,52,0.0,0.0,94,0.00,CLR,OVC,0.00,WeatherDisplay:10.37,2013-01-09 05:34:00,
2013-01-09 00:39:00,68.4,66.6,30.19,NE,52,0.0,0.0,94,0.00,CLR,OVC,0.00,WeatherDisplay:10.37,2013-01-09 05:39:00,
2013-01-09 00:44:00,68.4,66.6,30.19,NE,35,0.0,2.3,94,0.00,CLR,OVC,0.00,WeatherDisplay:10.37,2013-01-09 05:44:00,
2013-01-09 00:49:00,68.4,66.6,30.19,NE,52,0.0,0.0,94,0.00,CLR,OVC,0.00,WeatherDisplay:10.37,2013-01-09 05:49:00,
2013-01-09 00:54:00,68.6,66.8,30.19,NE,40,4.0,5.0,94,0.00,CLR,OVC,0.00,WeatherDisplay:10.37,2013-01-09 05:54:00,
2013-01-09 00:59:00,68.4,66.6,30.19,NE,52,0.0,0.0,94,0.00,CLR,OVC,0.00,WeatherDisplay:10.37,2013-01-09 05:59:00,
2013-01-09 01:04:00,68.6,66.8,30.19,NE,40,2.0,0.0,94,0.00,CLR,OVC,0.00,WeatherDisplay:10.37,2013-01-09 06:04:00,
2013-01-09 01:09:00,68.8,67.0,30.19,NE,48,2.0,4.6,94,0.00,CLR,OVC,0.00,WeatherDisplay:10.37,2013-01-09 06:09:00,
2013-01-09 01:14:00,68.4,66.6,30.19,NE,52,0.0,0.0,94,0.00,CLR,OVC,0.00,WeatherDisplay:10.37,2013-01-09 06:14:00,
2013-01-09 01:19:00,68.8,67.0,30.19,NE,40,0.0,2.3,94,0.00,CLR,OVC,0.00,WeatherDisplay:10.37,2013-01-09 06:19:00,
2013-01-09 01:24:00,68.8,67.0,30.19,NE,40,0.0,2.3,94,0.00,CLR,OVC,0.00,WeatherDisplay:10.37,2013-01-09 06:24:00,
2013-01-09 01:29:00,68.8,67.0,30.19,NE,38,0.0,0.0,94,0.00,CLR,OVC,0.00,WeatherDisplay:10.37,2013-01-09 06:29:00,
2013-01-09 01:34:00,68.4,66.6,30.19,NE,52,0.0,0.0,94,0.00,CLR,OVC,0.00,WeatherDisplay:10.37,2013-01-09 06:34:00,
2013-01-09 01:39:00,68.8,67.0,30.19,NE,40,0.0,1.1,94,0.00,CLR,OVC,0.00,WeatherDisplay:10.37,2013-01-09 06:39:00,
2013-01-09 01:44:00,68.8,67.0,30.19,NE,40,0.0,1.1,94,0.00,CLR,OVC,0.00,WeatherDisplay:10.37,2013-01-09 06:44:00,
2013-01-09 01:49:00,68.4,66.6,30.19,NE,52,0.0,0.0,94,0.00,CLR,OVC,0.00,WeatherDisplay:10.37,2013-01-09 06:49:00,
2013-01-09 01:54:00,68.4,66.6,30.19,NE,52,0.0,0.0,94,0.00,CLR,OVC,0.00,WeatherDisplay:10.37,2013-01-09 06:54:00,
2013-01-09 01:59:00,68.8,67.0,30.20,NE,35,0.0,0.0,94,0.00,CLR,OVC,0.00,WeatherDisplay:10.37,2013-01-09 06:59:00,
2013-01-09 02:04:00,68.9,67.1,30.19,NE,35,0.0,0.0,94,0.00,CLR,OVC,0.00,WeatherDisplay:10.37,2013-01-09 07:04:00,
2013-01-09 02:09:00,68.4,66.6,30.19,NE,52,0.0,0.0,94,0.00,CLR,OVC,0.00,WeatherDisplay:10.37,2013-01-09 07:09:00,
2013-01-09 02:14:00,68.9,67.1,30.19,NE,37,0.0,0.0,94,0.00,CLR,OVC,0.00,WeatherDisplay:10.37,2013-01-09 07:14:00,
2013-01-09 02:19:00,68.4,66.6,30.19,NE,52,0.0,0.0,94,0.00,CLR,OVC,0.00,WeatherDisplay:10.37,2013-01-09 07:19:00,
2013-01-09 02:24:00,68.9,67.1,30.19,NE,38,0.0,0.0,94,0.00,CLR,OVC,0.00,WeatherDisplay:10.37,2013-01-09 07:24:00,
2013-01-09 02:29:00,68.9,67.1,30.19,NE,38,0.0,0.0,94,0.00,CLR,OVC,0.00,WeatherDisplay:10.37,2013-01-09 07:29:00,
2013-01-09 02:34:00,68.9,67.1,30.19,NE,49,0.0,0.0,94,0.00,CLR,OVC,0.00,WeatherDisplay:10.37,2013-01-09 07:34:00,
2013-01-09 02:39:00,68.8,67.0,30.19,NE,49,0.0,0.0,94,0.00,CLR,OVC,0.00,WeatherDisplay:10.37,2013-01-09 07:39:00,
2013-01-09 02:44:00,68.4,66.6,30.19,NE,52,0.0,0.0,94,0.00,CLR,OVC,0.00,WeatherDisplay:10.37,2013-01-09 07:44:00,
2013-01-09 02:49:00,68.4,66.6,30.19,NE,52,0.0,0.0,94,0.00,CLR,OVC,0.00,WeatherDisplay:10.37,2013-01-09 07:49:00,
2013-01-09 02:54:00,68.6,66.8,30.19,NE,49,0.0,0.0,94,0.00,CLR,OVC,0.00,WeatherDisplay:10.37,2013-01-09 07:54:00,
2013-01-09 02:59:00,68.4,66.6,30.19,NE,49,0.0,0.0,94,0.00,CLR,OVC,0.00,WeatherDisplay:10.37,2013-01-09 07:59:00,
2013-01-09 03:04:00,68.4,66.6,30.19,NE,52,0.0,0.0,94,0.00,CLR,OVC,0.00,WeatherDisplay:10.37,2013-01-09 08:04:00,
2013-01-09 03:09:00,68.4,66.6,30.19,NE,52,0.0,0.0,94,0.00,CLR,OVC,0.00,WeatherDisplay:10.37,2013-01-09 08:09:00,
2013-01-09 03:14:00,68.3,66.5,30.19,NE,42,0.0,0.0,94,0.00,CLR,OVC,0.00,WeatherDisplay:10.37,2013-01-09 08:14:00,
2013-01-09 03:19:00,68.1,66.3,30.19,ENE,69,0.0,0.0,94,0.00,CLR,OVC,0.00,WeatherDisplay:10.37,2013-01-09 08:19:00,
2013-01-09 03:24:00,68.1,66.3,30.19,ENE,69,0.0,0.0,94,0.00,CLR,OVC,0.00,WeatherDisplay:10.37,2013-01-09 08:24:00,
2013-01-09 03:29:00,68.1,66.3,30.19,ENE,69,0.0,0.0,94,0.00,CLR,OVC,0.00,WeatherDisplay:10.37,2013-01-09 08:29:00,
2013-01-09 03:34:00,68.1,66.6,30.19,ENE,68,0.0,0.0,95,0.00,CLR,OVC,0.00,WeatherDisplay:10.37,2013-01-09 08:34:00,
2013-01-09 03:39:00,68.4,66.6,30.19,NE,52,0.0,0.0,94,0.00,CLR,OVC,0.00,WeatherDisplay:10.37,2013-01-09 08:39:00,
2013-01-09 03:44:00,68.1,66.6,30.19,ENE,66,0.0,0.0,95,0.00,CLR,OVC,0.00,WeatherDisplay:10.37,2013-01-09 08:44:00,
2013-01-09 03:49:00,67.9,66.4,30.19,ENE,66,0.0,0.0,95,0.00,CLR,OVC,0.00,WeatherDisplay:10.37,2013-01-09 08:49:00,
2013-01-09 03:54:00,67.9,66.4,30.19,ENE,66,0.0,0.0,95,0.00,CLR,OVC,0.00,WeatherDisplay:10.37,2013-01-09 08:54:00,
2013-01-09 03:59:00,68.4,66.6,30.19,NE,52,0.0,0.0,94,0.00,CLR,OVC,0.00,WeatherDisplay:10.37,2013-01-09 08:59:00,
2013-01-09 04:04:00,67.9,66.4,30.19,ENE,66,0.0,0.0,95,0.00,CLR,OVC,0.00,WeatherDisplay:10.37,2013-01-09 09:04:00,
2013-01-09 04:09:00,67.9,66.4,30.19,ENE,66,0.0,0.0,95,0.00,CLR,OVC,0.00,WeatherDisplay:10.37,2013-01-09 09:09:00,
2013-01-09 04:14:00,67.8,66.3,30.19,ENE,71,0.0,0.0,95,0.00,CLR,OVC,0.00,WeatherDisplay:10.37,2013-01-09 09:14:00,
2013-01-09 04:19:00,67.8,66.3,30.19,ENE,71,0.0,0.0,95,0.00,CLR,OVC,0.00,WeatherDisplay:10.37,2013-01-09 09:19:00,
2013-01-09 04:24:00,67.8,66.3,30.19,ENE,71,0.0,0.0,95,0.00,CLR,OVC,0.00,WeatherDisplay:10.37,2013-01-09 09:24:00,
2013-01-09 04:29:00,67.8,66.3,30.19,ENE,71,0.0,0.0,95,0.00,CLR,OVC,0.00,WeatherDisplay:10.37,2013-01-09 09:29:00,
2013-01-09 04:34:00,67.8,66.3,30.19,ENE,71,0.0,0.0,95,0.00,CLR,OVC,0.00,WeatherDisplay:10.37,2013-01-09 09:34:00,
2013-01-09 04:39:00,67.8,66.3,30.19,ENE,71,0.0,0.0,95,0.00,CLR,OVC,0.00,WeatherDisplay:10.37,2013-01-09 09:39:00,
2013-01-09 04:44:00,67.8,66.3,30.19,ENE,71,0.0,0.0,95,0.00,CLR,OVC,0.00,WeatherDisplay:10.37,2013-01-09 09:44:00,
2013-01-09 04:49:00,67.8,66.3,30.19,ENE,71,0.0,0.0,95,0.00,CLR,OVC,0.00,WeatherDisplay:10.37,2013-01-09 09:49:00,
2013-01-09 04:54:00,67.8,66.3,30.19,ENE,71,0.0,0.0,95,0.00,CLR,OVC,0.00,WeatherDisplay:10.37,2013-01-09 09:54:00,
2013-01-09 04:59:00,67.6,66.1,30.19,ENE,68,0.0,2.3,95,0.00,CLR,OVC,0.00,WeatherDisplay:10.37,2013-01-09 09:59:00,
2013-01-09 05:04:00,67.6,66.1,30.19,ENE,68,0.0,2.3,95,0.00,CLR,OVC,0.00,WeatherDisplay:10.37,2013-01-09 10:04:00,
2013-01-09 05:09:00,67.6,66.1,30.19,ENE,68,0.0,2.3,95,0.00,CLR,OVC,0.00,WeatherDisplay:10.37,2013-01-09 10:09:00,
2013-01-09 05:14:00,67.8,66.3,30.19,ENE,71,0.0,0.0,95,0.00,CLR,OVC,0.00,WeatherDisplay:10.37,2013-01-09 10:14:00,
2013-01-09 05:19:00,68.4,67.2,30.19,ENE,78,0.4,2.3,96,0.00,CLR,OVC,0.00,WeatherDisplay:10.37,2013-01-09 10:19:00,
2013-01-09 05:24:00,68.4,67.2,30.19,ENE,78,0.4,0.0,96,0.00,CLR,OVC,0.00,WeatherDisplay:10.37,2013-01-09 10:24:00,
2013-01-09 05:29:00,68.4,67.2,30.19,ENE,78,0.4,0.0,96,0.00,CLR,OVC,0.00,WeatherDisplay:10.37,2013-01-09 10:29:00,
2013-01-09 05:34:00,68.6,67.4,30.19,ENE,73,0.0,0.0,96,0.00,CLR,OVC,0.00,WeatherDisplay:10.37,2013-01-09 10:34:00,
2013-01-09 05:39:00,68.6,67.4,30.19,ENE,73,0.0,0.0,96,0.00,CLR,OVC,0.00,WeatherDisplay:10.37,2013-01-09 10:39:00,
2013-01-09 05:44:00,68.6,67.4,30.19,ENE,73,0.0,0.0,96,0.00,CLR,OVC,0.00,WeatherDisplay:10.37,2013-01-09 10:44:00,
2013-01-09 05:49:00,68.8,67.6,30.19,East,93,0.0,0.0,96,0.00,CLR,OVC,0.00,WeatherDisplay:10.37,2013-01-09 10:49:00,
2013-01-09 05:54:00,67.8,66.3,30.19,ENE,71,0.0,0.0,95,0.00,CLR,OVC,0.00,WeatherDisplay:10.37,2013-01-09 10:54:00,
2013-01-09 05:59:00,68.8,67.6,30.19,East,93,0.0,0.0,96,0.00,CLR,OVC,0.00,WeatherDisplay:10.37,2013-01-09 10:59:00,
2013-01-09 06:04:00,68.8,67.6,30.19,East,93,0.0,0.0,96,0.00,CLR,OVC,0.00,WeatherDisplay:10.37,2013-01-09 11:04:00,
2013-01-09 06:09:00,68.6,67.4,30.20,East,80,2.6,0.0,96,0.00,CLR,OVC,0.00,WeatherDisplay:10.37,2013-01-09 11:09:00,
2013-01-09 06:14:00,67.8,66.3,30.19,ENE,71,0.0,0.0,95,0.00,CLR,OVC,0.00,WeatherDisplay:10.37,2013-01-09 11:14:00,
2013-01-09 06:19:00,68.4,67.2,30.20,East,80,0.0,0.0,96,0.00,CLR,OVC,0.00,WeatherDisplay:10.37,2013-01-09 11:19:00,
2013-01-09 06:24:00,67.8,66.3,30.19,ENE,71,0.0,0.0,95,0.00,CLR,OVC,0.00,WeatherDisplay:10.37,2013-01-09 11:24:00,
2013-01-09 06:29:00,67.8,66.3,30.19,ENE,71,0.0,0.0,95,0.00,CLR,OVC,0.00,WeatherDisplay:10.37,2013-01-09 11:29:00,
2013-01-09 06:34:00,68.6,67.4,30.20,East,80,0.0,1.1,96,0.00,CLR,OVC,0.00,WeatherDisplay:10.37,2013-01-09 11:34:00,
2013-01-09 06:39:00,68.6,67.4,30.20,East,80,0.0,1.1,96,0.00,CLR,OVC,0.00,WeatherDisplay:10.37,2013-01-09 11:39:00,
2013-01-09 06:44:00,68.6,67.4,30.20,East,80,0.0,1.1,96,0.00,CLR,OVC,0.00,WeatherDisplay:10.37,2013-01-09 11:44:00,
2013-01-09 06:49:00,68.6,67.4,30.20,East,80,0.0,1.1,96,0.00,CLR,OVC,0.00,WeatherDisplay:10.37,2013-01-09 11:49:00,
2013-01-09 06:54:00,68.9,68.0,30.21,ENE,58,1.0,0.0,97,0.00,CLR,OVC,0.00,WeatherDisplay:10.37,2013-01-09 11:54:00,
2013-01-09 06:59:00,67.8,66.3,30.19,ENE,71,0.0,0.0,95,0.00,CLR,OVC,0.00,WeatherDisplay:10.37,2013-01-09 11:59:00,
2013-01-09 07:04:00,67.8,66.3,30.19,ENE,71,0.0,0.0,95,0.00,CLR,OVC,0.00,WeatherDisplay:10.37,2013-01-09 12:04:00,
2013-01-09 07:09:00,67.8,66.3,30.19,ENE,71,0.0,0.0,95,0.00,CLR,OVC,0.00,WeatherDisplay:10.37,2013-01-09 12:09:00,
2013-01-09 07:14:00,68.9,67.7,30.22,East,83,0.0,0.0,96,0.00,CLR,OVC,0.00,WeatherDisplay:10.37,2013-01-09 12:14:00,
2013-01-09 07:19:00,68.8,67.6,30.22,ENE,66,0.0,0.0,96,0.00,CLR,OVC,0.00,WeatherDisplay:10.37,2013-01-09 12:19:00,
2013-01-09 07:24:00,67.8,66.3,30.19,ENE,71,0.0,0.0,95,0.00,CLR,OVC,0.00,WeatherDisplay:10.37,2013-01-09 12:24:00,
2013-01-09 07:29:00,68.8,67.6,30.22,ENE,65,0.0,0.0,96,0.00,CLR,OVC,0.00,WeatherDisplay:10.37,2013-01-09 12:29:00,
2013-01-09 07:34:00,67.8,66.3,30.19,ENE,71,0.0,0.0,95,0.00,CLR,OVC,0.00,WeatherDisplay:10.37,2013-01-09 12:34:00,
2013-01-09 07:39:00,68.6,67.4,30.22,ENE,73,0.0,0.0,96,0.00,CLR,OVC,0.00,WeatherDisplay:10.37,2013-01-09 12:39:00,
2013-01-09 07:44:00,68.6,67.4,30.22,ENE,73,0.0,0.0,96,0.00,CLR,OVC,0.00,WeatherDisplay:10.37,2013-01-09 12:44:00,
2013-01-09 07:49:00,67.8,66.3,30.19,ENE,71,0.0,0.0,95,0.00,CLR,OVC,0.00,WeatherDisplay:10.37,2013-01-09 12:49:00,
2013-01-09 07:54:00,67.8,66.3,30.19,ENE,71,0.0,0.0,95,0.00,CLR,OVC,0.00,WeatherDisplay:10.37,2013-01-09 12:54:00,
2013-01-09 07:59:00,68.8,67.9,30.23,East,80,0.0,0.0,97,0.00,CLR,OVC,0.00,WeatherDisplay:10.37,2013-01-09 12:59:00,
2013-01-09 08:04:00,68.8,67.9,30.23,East,80,0.0,0.0,97,0.00,CLR,OVC,0.00,WeatherDisplay:10.37,2013-01-09 13:04:00,
2013-01-09 08:09:00,67.8,66.3,30.19,ENE,71,0.0,0.0,95,0.00,CLR,OVC,0.00,WeatherDisplay:10.37,2013-01-09 13:09:00,
2013-01-09 08:14:00,67.8,66.3,30.19,ENE,71,0.0,0.0,95,0.00,CLR,OVC,0.00,WeatherDisplay:10.37,2013-01-09 13:14:00,
2013-01-09 08:19:00,68.8,67.9,30.23,East,80,0.0,0.0,97,0.00,CLR,OVC,0.00,WeatherDisplay:10.37,2013-01-09 13:19:00,
2013-01-09 08:25:00,69.1,68.2,30.25,East,82,0.0,0.0,97,0.00,CLR,OVC,0.00,WeatherDisplay:10.37,2013-01-09 13:25:00,
2013-01-09 08:30:00,67.8,66.3,30.19,ENE,71,0.0,0.0,95,0.00,CLR,OVC,0.00,WeatherDisplay:10.37,2013-01-09 13:30:00,
2013-01-09 08:35:00,67.8,66.3,30.19,ENE,71,0.0,0.0,95,0.00,CLR,OVC,0.00,WeatherDisplay:10.37,2013-01-09 13:35:00,
2013-01-09 08:40:00,69.3,68.1,30.25,East,82,0.0,0.0,96,0.00,CLR,OVC,0.00,WeatherDisplay:10.37,2013-01-09 13:40:00,
2013-01-09 08:45:00,69.6,68.7,30.26,East,82,0.0,0.0,97,0.00,CLR,OVC,0.00,WeatherDisplay:10.37,2013-01-09 13:45:00,
2013-01-09 08:50:00,69.6,68.7,30.26,East,82,0.0,0.0,97,0.00,CLR,OVC,0.00,WeatherDisplay:10.37,2013-01-09 13:50:00,
2013-01-09 08:55:00,67.8,66.3,30.19,ENE,71,0.0,0.0,95,0.00,CLR,OVC,0.00,WeatherDisplay:10.37,2013-01-09 13:55:00,
2013-01-09 09:00:00,70.3,69.4,30.26,ENE,68,0.0,0.0,97,0.00,CLR,OVC,0.00,WeatherDisplay:10.37,2013-01-09 14:00:00,
2013-01-09 09:05:00,67.8,66.3,30.19,ENE,71,0.0,0.0,95,0.00,CLR,OVC,0.00,WeatherDisplay:10.37,2013-01-09 14:05:00,
2013-01-09 09:10:00,67.8,66.3,30.19,ENE,71,0.0,0.0,95,0.00,CLR,OVC,0.00,WeatherDisplay:10.37,2013-01-09 14:10:00,
2013-01-09 09:15:00,67.8,66.3,30.19,ENE,71,0.0,0.0,95,0.00,CLR,OVC,0.00,WeatherDisplay:10.37,2013-01-09 14:15:00,
2013-01-09 09:20:00,67.8,66.3,30.19,ENE,71,0.0,0.0,95,0.00,CLR,OVC,0.00,WeatherDisplay:10.37,2013-01-09 14:20:00,
2013-01-09 09:25:00,67.8,66.3,30.19,ENE,71,0.0,0.0,95,0.00,CLR,OVC,0.00,WeatherDisplay:10.37,2013-01-09 14:25:00,
2013-01-09 09:30:00,67.8,66.3,30.19,ENE,71,0.0,0.0,95,0.00,CLR,OVC,0.00,WeatherDisplay:10.37,2013-01-09 14:30:00,
2013-01-09 09:35:00,71.4,69.8,30.27,SE,136,0.0,0.0,95,0.00,CLR,OVC,0.00,WeatherDisplay:10.37,2013-01-09 14:35:00,
2013-01-09 09:40:00,67.8,66.3,30.19,ENE,71,0.0,0.0,95,0.00,CLR,OVC,0.00,WeatherDisplay:10.37,2013-01-09 14:40:00,
2013-01-09 09:46:00,72.1,69.6,30.28,SE,133,0.0,0.0,92,0.00,CLR,OVC,0.00,WeatherDisplay:10.37,2013-01-09 14:46:00,
2013-01-09 09:51:00,72.1,69.6,30.28,SE,133,0.0,0.0,92,0.00,CLR,OVC,0.00,WeatherDisplay:10.37,2013-01-09 14:51:00,
2013-01-09 09:56:00,72.1,69.6,30.28,SE,133,0.0,0.0,92,0.00,CLR,OVC,0.00,WeatherDisplay:10.37,2013-01-09 14:56:00,
2013-01-09 10:01:00,72.1,69.6,30.28,SE,133,0.0,0.0,92,0.00,CLR,OVC,0.00,WeatherDisplay:10.37,2013-01-09 15:01:00,
2013-01-09 10:06:00,73.0,68.2,30.28,SE,143,0.0,0.0,85,0.00,CLR,OVC,0.00,WeatherDisplay:10.37,2013-01-09 15:06:00,
2013-01-09 10:11:00,67.8,66.3,30.19,ENE,71,0.0,0.0,95,0.00,CLR,OVC,0.00,WeatherDisplay:10.37,2013-01-09 15:11:00,
2013-01-09 10:16:00,73.0,68.2,30.28,SE,143,0.0,0.0,85,0.00,CLR,OVC,0.00,WeatherDisplay:10.37,2013-01-09 15:16:00,
2013-01-09 10:21:00,67.8,66.3,30.19,ENE,71,0.0,0.0,95,0.00,CLR,OVC,0.00,WeatherDisplay:10.37,2013-01-09 15:21:00,
2013-01-09 10:26:00,73.9,67.3,30.28,ESE,113,0.0,0.0,80,0.00,CLR,OVC,0.00,WeatherDisplay:10.37,2013-01-09 15:26:00,
2013-01-09 10:31:00,67.8,66.3,30.19,ENE,71,0.0,0.0,95,0.00,CLR,OVC,0.00,WeatherDisplay:10.37,2013-01-09 15:31:00,
2013-01-09 10:36:00,74.6,67.3,30.28,ESE,119,0.0,0.0,78,0.00,CLR,OVC,0.00,WeatherDisplay:10.37,2013-01-09 15:36:00,
2013-01-09 10:41:00,67.8,66.3,30.19,ENE,71,0.0,0.0,95,0.00,CLR,OVC,0.00,WeatherDisplay:10.37,2013-01-09 15:41:00,
2013-01-09 10:46:00,67.8,66.3,30.19,ENE,71,0.0,0.0,95,0.00,CLR,OVC,0.00,WeatherDisplay:10.37,2013-01-09 15:46:00,
2013-01-09 10:51:00,74.9,67.6,30.28,SSE,148,0.0,0.0,78,0.00,CLR,OVC,0.00,WeatherDisplay:10.37,2013-01-09 15:51:00,
2013-01-09 10:56:00,75.6,67.5,30.28,SE,131,0.0,0.0,76,0.00,CLR,OVC,0.00,WeatherDisplay:10.37,2013-01-09 15:56:00,
2013-01-09 11:01:00,67.8,66.3,30.19,ENE,71,0.0,0.0,95,0.00,CLR,OVC,0.00,WeatherDisplay:10.37,2013-01-09 16:01:00,
2013-01-09 11:06:00,76.5,67.6,30.28,SSE,154,0.0,0.0,74,0.00,CLR,OVC,0.01,WeatherDisplay:10.37,2013-01-09 16:06:00,
2013-01-09 11:11:00,76.3,67.4,30.28,SE,141,0.0,0.0,74,0.01,RA,OVC,0.01,WeatherDisplay:10.37,2013-01-09 16:11:00,
2013-01-09 11:16:00,76.5,67.6,30.28,SSE,154,0.0,2.3,74,0.01,RA,OVC,0.01,WeatherDisplay:10.37,2013-01-09 16:16:00,
2013-01-09 11:21:00,77.0,67.3,30.27,ESE,121,0.0,0.0,72,0.01,CLR,OVC,0.01,WeatherDisplay:10.37,2013-01-09 16:21:00,
2013-01-09 11:26:00,76.5,67.6,30.28,SSE,154,0.0,2.3,74,0.01,CLR,OVC,0.01,WeatherDisplay:10.37,2013-01-09 16:26:00,
2013-01-09 11:31:00,77.4,67.3,30.27,SSE,162,0.0,0.0,71,0.01,CLR,OVC,0.01,WeatherDisplay:10.37,2013-01-09 16:31:00,
2013-01-09 11:36:00,77.7,67.1,30.27,SSE,162,0.0,0.0,70,0.01,CLR,OVC,0.01,WeatherDisplay:10.37,2013-01-09 16:36:00,
2013-01-09 11:41:00,77.9,67.3,30.27,SE,140,0.0,0.0,70,0.01,CLR,OVC,0.01,WeatherDisplay:10.37,2013-01-09 16:41:00,
2013-01-09 11:46:00,77.9,66.9,30.27,SSE,147,0.0,0.0,69,0.01,CLR,OVC,0.01,WeatherDisplay:10.37,2013-01-09 16:46:00,
2013-01-09 11:51:00,76.5,67.6,30.28,SSE,154,0.0,2.3,74,0.01,CLR,OVC,0.01,WeatherDisplay:10.37,2013-01-09 16:51:00,
2013-01-09 11:56:00,76.7,68.2,30.27,SE,140,0.9,2.3,75,0.01,CLR,OVC,0.01,WeatherDisplay:10.37,2013-01-09 16:56:00,
2013-01-09 12:01:00,77.2,68.7,30.27,SSE,148,2.0,0.0,75,0.01,CLR,OVC,0.01,WeatherDisplay:10.37,2013-01-09 17:01:00,
2013-01-09 12:06:00,75.6,68.3,30.26,SE,128,0.0,0.0,78,0.00,CLR,OVC,0.01,WeatherDisplay:10.37,2013-01-09 17:06:00,
2013-01-09 12:11:00,77.2,68.7,30.27,SSE,148,2.0,0.0,75,0.00,CLR,OVC,0.01,WeatherDisplay:10.37,2013-01-09 17:11:00,
2013-01-09 12:16:00,77.2,68.7,30.27,SSE,148,2.0,0.0,75,0.00,CLR,OVC,0.01,WeatherDisplay:10.37,2013-01-09 17:16:00,
2013-01-09 12:21:00,77.2,68.7,30.27,SSE,148,2.0,0.0,75,0.00,CLR,OVC,0.01,WeatherDisplay:10.37,2013-01-09 17:21:00,
2013-01-09 12:26:00,75.8,68.8,30.25,SE,136,0.0,0.0,79,0.00,CLR,OVC,0.01,WeatherDisplay:10.37,2013-01-09 17:26:00,
2013-01-09 12:31:00,76.0,69.0,30.25,SE,136,0.0,0.0,79,0.00,CLR,OVC,0.01,WeatherDisplay:10.37,2013-01-09 17:31:00,
2013-01-09 12:36:00,76.1,68.7,30.25,SE,134,0.0,0.0,78,0.00,CLR,OVC,0.01,WeatherDisplay:10.37,2013-01-09 17:36:00,
2013-01-09 12:41:00,77.2,68.7,30.27,SSE,148,2.0,0.0,75,0.00,CLR,OVC,0.01,WeatherDisplay:10.37,2013-01-09 17:41:00,
2013-01-09 12:46:00,77.2,68.7,30.27,SSE,148,2.0,0.0,75,0.00,CLR,OVC,0.01,WeatherDisplay:10.37,2013-01-09 17:46:00,
2013-01-09 12:51:00,77.2,68.7,30.27,SSE,148,2.0,0.0,75,0.00,CLR,OVC,0.01,WeatherDisplay:10.37,2013-01-09 17:51:00,
2013-01-09 12:56:00,77.9,68.1,30.24,ENE,59,0.0,2.0,72,0.00,CLR,OVC,0.01,WeatherDisplay:10.37,2013-01-09 17:56:00,
2013-01-09 13:01:00,78.3,68.1,30.24,SE,133,1.9,0.0,71,0.00,CLR,OVC,0.01,WeatherDisplay:10.37,2013-01-09 18:01:00,
2013-01-09 13:06:00,77.2,68.7,30.27,SSE,148,2.0,0.0,75,0.00,CLR,OVC,0.01,WeatherDisplay:10.37,2013-01-09 18:06:00,
2013-01-09 13:11:00,79.6,69.0,30.23,South,175,0.0,1.1,70,0.00,CLR,OVC,0.01,WeatherDisplay:10.37,2013-01-09 18:11:00,
2013-01-09 13:16:00,79.8,68.3,30.23,SE,143,0.6,0.0,68,0.00,CLR,OVC,0.01,WeatherDisplay:10.37,2013-01-09 18:16:00,
2013-01-09 13:21:00,77.2,68.7,30.27,SSE,148,2.0,0.0,75,0.00,CLR,OVC,0.01,WeatherDisplay:10.37,2013-01-09 18:21:00,
2013-01-09 13:26:00,80.9,68.9,30.23,SSE,154,0.0,0.0,67,0.00,CLR,OVC,0.01,WeatherDisplay:10.37,2013-01-09 18:26:00,
2013-01-09 13:31:00,81.6,68.2,30.22,ESE,107,0.0,0.0,64,0.00,CLR,OVC,0.01,WeatherDisplay:10.37,2013-01-09 18:31:00,
2013-01-09 13:36:00,77.2,68.7,30.27,SSE,148,2.0,0.0,75,0.00,CLR,OVC,0.01,WeatherDisplay:10.37,2013-01-09 18:36:00,
2013-01-09 13:41:00,77.2,68.7,30.27,SSE,148,2.0,0.0,75,0.00,CLR,OVC,0.01,WeatherDisplay:10.37,2013-01-09 18:41:00,
2013-01-09 13:42:00,77.2,68.7,30.27,SSE,148,2.0,0.0,75,0.00,CLR,OVC,0.01,WeatherDisplay:10.37,2013-01-09 18:42:00,
2013-01-09 13:43:00,81.8,68.0,30.22,ESE,123,0.0,0.0,63,0.00,CLR,OVC,0.01,WeatherDisplay:10.37,2013-01-09 18:43:00,
2013-01-09 13:44:00,81.8,68.0,30.22,ESE,123,0.0,0.0,63,0.00,CLR,OVC,0.01,WeatherDisplay:10.37,2013-01-09 18:44:00,
2013-01-09 13:45:00,77.2,68.7,30.27,SSE,148,2.0,0.0,75,0.00,CLR,OVC,0.01,WeatherDisplay:10.37,2013-01-09 18:45:00,
2013-01-09 13:48:00,81.8,68.0,30.22,ESE,123,0.0,0.0,63,0.00,CLR,OVC,0.01,WeatherDisplay:10.37,2013-01-09 18:48:00,
2013-01-09 13:50:00,81.8,68.0,30.22,SE,134,0.0,0.0,63,0.00,CLR,OVC,0.01,WeatherDisplay:10.37,2013-01-09 18:50:00,
2013-01-09 13:56:00,77.2,68.7,30.27,SSE,148,2.0,0.0,75,0.00,CLR,OVC,0.01,WeatherDisplay:10.37,2013-01-09 18:56:00,
2013-01-09 13:57:00,82.0,68.2,30.22,SSE,154,0.0,0.0,63,0.00,CLR,OVC,0.01,WeatherDisplay:10.37,2013-01-09 18:57:00,
2013-01-09 14:02:00,82.0,68.2,30.22,SSE,154,0.0,0.0,63,0.00,CLR,OVC,0.01,WeatherDisplay:10.37,2013-01-09 19:02:00,
2013-01-09 14:07:00,82.0,68.2,30.22,SSE,154,0.0,0.0,63,0.00,CLR,OVC,0.01,WeatherDisplay:10.37,2013-01-09 19:07:00,
2013-01-09 14:12:00,77.2,68.7,30.27,SSE,148,2.0,0.0,75,0.00,CLR,OVC,0.01,WeatherDisplay:10.37,2013-01-09 19:12:00,
2013-01-09 14:17:00,82.4,68.1,30.21,ENE,69,2.0,2.3,62,0.00,CLR,OVC,0.01,WeatherDisplay:10.37,2013-01-09 19:17:00,
2013-01-09 14:22:00,77.2,68.7,30.27,SSE,148,2.0,0.0,75,0.00,CLR,OVC,0.01,WeatherDisplay:10.37,2013-01-09 19:22:00,
2013-01-09 14:27:00,77.2,68.7,30.27,SSE,148,2.0,0.0,75,0.00,CLR,OVC,0.01,WeatherDisplay:10.37,2013-01-09 19:27:00,
2013-01-09 14:32:00,77.2,68.7,30.27,SSE,148,2.0,0.0,75,0.00,CLR,OVC,0.01,WeatherDisplay:10.37,2013-01-09 19:32:00,
2013-01-09 14:37:00,81.1,67.3,30.21,SE,138,0.0,0.0,63,0.00,CLR,OVC,0.01,WeatherDisplay:10.37,2013-01-09 19:37:00,
2013-01-09 14:42:00,80.9,67.1,30.21,SE,141,0.0,0.0,63,0.00,CLR,OVC,0.01,WeatherDisplay:10.37,2013-01-09 19:42:00,
2013-01-09 14:47:00,80.7,67.4,30.21,SE,126,0.0,0.0,64,0.00,CLR,OVC,0.01,WeatherDisplay:10.37,2013-01-09 19:47:00,
2013-01-09 14:52:00,80.7,67.4,30.21,SE,127,0.0,0.0,64,0.00,CLR,OVC,0.01,WeatherDisplay:10.37,2013-01-09 19:52:00,
2013-01-09 14:57:00,80.5,67.2,30.21,SE,133,0.0,0.0,64,0.00,CLR,OVC,0.01,WeatherDisplay:10.37,2013-01-09 19:57:00,
2013-01-09 15:02:00,81.1,66.8,30.21,ESE,116,0.0,0.0,62,0.00,CLR,OVC,0.01,WeatherDisplay:10.37,2013-01-09 20:02:00,
2013-01-09 15:08:00,80.9,67.1,30.21,SE,141,0.0,0.0,63,0.00,CLR,OVC,0.01,WeatherDisplay:10.37,2013-01-09 20:08:00,
2013-01-09 15:13:00,81.1,66.8,30.21,SSE,147,0.0,0.0,62,0.00,CLR,OVC,0.01,WeatherDisplay:10.37,2013-01-09 20:13:00,
2013-01-09 15:18:00,81.1,66.8,30.21,East,96,0.4,2.3,62,0.00,CLR,OVC,0.01,WeatherDisplay:10.37,2013-01-09 20:18:00,
2013-01-09 15:23:00,80.9,67.1,30.21,SE,141,0.0,0.0,63,0.00,CLR,OVC,0.01,WeatherDisplay:10.37,2013-01-09 20:23:00,
2013-01-09 15:28:00,80.9,67.1,30.21,SE,141,0.0,0.0,63,0.00,CLR,OVC,0.01,WeatherDisplay:10.37,2013-01-09 20:28:00,
2013-01-09 15:33:00,80.9,67.6,30.21,ENE,65,1.7,2.3,64,0.00,CLR,OVC,0.01,WeatherDisplay:10.37,2013-01-09 20:33:00,
2013-01-09 15:38:00,80.1,68.2,30.22,NE,55,5.8,0.0,67,0.00,CLR,OVC,0.01,WeatherDisplay:10.37,2013-01-09 20:38:00,
2013-01-09 15:43:00,80.1,68.2,30.22,NE,55,5.8,0.0,67,0.00,CLR,OVC,0.01,WeatherDisplay:10.37,2013-01-09 20:43:00,
2013-01-09 15:48:00,80.9,67.1,30.21,SE,141,0.0,0.0,63,0.00,CLR,OVC,0.01,WeatherDisplay:10.37,2013-01-09 20:48:00,
2013-01-09 15:53:00,80.9,67.1,30.21,SE,141,0.0,0.0,63,0.00,CLR,OVC,0.01,WeatherDisplay:10.37,2013-01-09 20:53:00,
2013-01-09 15:58:00,79.2,67.7,30.22,ENE,78,2.0,0.0,68,0.00,CLR,OVC,0.01,WeatherDisplay:10.37,2013-01-09 20:58:00,
2013-01-09 16:03:00,78.6,67.6,30.22,NE,56,2.1,2.1,69,0.00,CLR,OVC,0.01,WeatherDisplay:10.37,2013-01-09 21:03:00,
2013-01-09 16:08:00,78.6,67.6,30.22,ENE,69,0.9,1.1,69,0.00,CLR,OVC,0.01,WeatherDisplay:10.37,2013-01-09 21:08:00,
2013-01-09 16:13:00,78.6,67.6,30.22,East,99,3.0,3.5,69,0.00,CLR,OVC,0.01,WeatherDisplay:10.37,2013-01-09 21:13:00,
2013-01-09 16:18:00,78.6,67.6,30.22,East,97,0.0,0.0,69,0.00,CLR,OVC,0.01,WeatherDisplay:10.37,2013-01-09 21:18:00,
2013-01-09 16:23:00,80.9,67.1,30.21,SE,141,0.0,0.0,63,0.00,CLR,OVC,0.01,WeatherDisplay:10.37,2013-01-09 21:23:00,
2013-01-09 16:28:00,78.5,67.5,30.22,ENE,69,0.0,0.0,69,0.00,CLR,OVC,0.01,WeatherDisplay:10.37,2013-01-09 21:28:00,
2013-01-09 16:33:00,78.5,67.5,30.22,NE,49,0.0,0.0,69,0.00,CLR,OVC,0.01,WeatherDisplay:10.37,2013-01-09 21:33:00,
2013-01-09 16:38:00,78.6,67.6,30.22,NE,49,0.0,0.0,69,0.00,CLR,OVC,0.01,WeatherDisplay:10.37,2013-01-09 21:38:00,
2013-01-09 16:43:00,78.8,67.8,30.22,NE,51,0.0,1.0,69,0.00,CLR,OVC,0.01,WeatherDisplay:10.37,2013-01-09 21:43:00,
2013-01-09 16:48:00,78.8,67.8,30.22,East,85,0.1,0.0,69,0.00,CLR,OVC,0.01,WeatherDisplay:10.37,2013-01-09 21:48:00,
2013-01-09 16:53:00,78.8,67.8,30.22,ENE,65,0.0,0.0,69,0.00,CLR,OVC,0.01,WeatherDisplay:10.37,2013-01-09 21:53:00,
2013-01-09 16:58:00,78.8,67.8,30.22,ENE,65,0.0,0.0,69,0.00,CLR,OVC,0.01,WeatherDisplay:10.37,2013-01-09 21:58:00,
2013-01-09 17:03:00,78.8,67.8,30.22,NE,55,0.0,0.0,69,0.00,CLR,OVC,0.01,WeatherDisplay:10.37,2013-01-09 22:03:00,
2013-01-09 17:08:00,78.6,67.6,30.22,NE,51,0.1,1.1,69,0.00,CLR,OVC,0.01,WeatherDisplay:10.37,2013-01-09 22:08:00,
2013-01-09 17:13:00,78.5,67.9,30.22,NE,48,0.0,2.0,70,0.00,CLR,OVC,0.01,WeatherDisplay:10.37,2013-01-09 22:13:00,
2013-01-09 17:18:00,78.5,67.9,30.22,NE,48,0.0,2.3,70,0.00,CLR,OVC,0.01,WeatherDisplay:10.37,2013-01-09 22:18:00,
2013-01-09 17:23:00,78.1,68.3,30.22,ENE,71,0.0,0.0,72,0.00,CLR,OVC,0.01,WeatherDisplay:10.37,2013-01-09 22:23:00,
2013-01-09 17:28:00,80.9,67.1,30.21,SE,141,0.0,0.0,63,0.00,CLR,OVC,0.01,WeatherDisplay:10.37,2013-01-09 22:28:00,
2013-01-09 17:33:00,77.7,68.0,30.22,ENE,64,0.0,0.0,72,0.00,CLR,OVC,0.01,WeatherDisplay:10.37,2013-01-09 22:33:00,
2013-01-09 17:38:00,80.9,67.1,30.21,SE,141,0.0,0.0,63,0.00,CLR,OVC,0.01,WeatherDisplay:10.37,2013-01-09 22:38:00,
2013-01-09 17:43:00,77.7,68.0,30.22,ENE,64,0.0,0.0,72,0.00,CLR,OVC,0.01,WeatherDisplay:10.37,2013-01-09 22:43:00,
2013-01-09 17:48:00,80.9,67.1,30.21,SE,141,0.0,0.0,63,0.00,CLR,OVC,0.01,WeatherDisplay:10.37,2013-01-09 22:48:00,
2013-01-09 17:53:00,80.9,67.1,30.21,SE,141,0.0,0.0,63,0.00,CLR,OVC,0.01,WeatherDisplay:10.37,2013-01-09 22:53:00,
2013-01-09 17:58:00,76.5,67.6,30.23,East,88,0.0,0.0,74,0.00,CLR,OVC,0.01,WeatherDisplay:10.37,2013-01-09 22:58:00,
2013-01-09 18:03:00,80.9,67.1,30.21,SE,141,0.0,0.0,63,0.00,CLR,OVC,0.01,WeatherDisplay:10.37,2013-01-09 23:03:00,
2013-01-09 18:08:00,76.0,67.5,30.23,ENE,62,0.0,0.0,75,0.00,CLR,OVC,0.01,WeatherDisplay:10.37,2013-01-09 23:08:00,
2013-01-09 18:13:00,80.9,67.1,30.21,SE,141,0.0,0.0,63,0.00,CLR,OVC,0.01,WeatherDisplay:10.37,2013-01-09 23:13:00,
2013-01-09 18:18:00,75.4,67.7,30.23,East,79,0.2,3.5,77,0.00,CLR,OVC,0.01,WeatherDisplay:10.37,2013-01-09 23:18:00,
2013-01-09 18:23:00,80.9,67.1,30.21,SE,141,0.0,0.0,63,0.00,CLR,OVC,0.01,WeatherDisplay:10.37,2013-01-09 23:23:00,
2013-01-09 18:28:00,80.9,67.1,30.21,SE,141,0.0,0.0,63,0.00,CLR,OVC,0.01,WeatherDisplay:10.37,2013-01-09 23:28:00,
2013-01-09 18:33:00,75.1,67.8,30.24,NE,54,2.0,2.3,78,0.00,CLR,OVC,0.01,WeatherDisplay:10.37,2013-01-09 23:33:00,
2013-01-09 18:38:00,75.1,67.8,30.24,NE,52,1.6,2.3,78,0.00,CLR,OVC,0.01,WeatherDisplay:10.37,2013-01-09 23:38:00,
2013-01-09 18:43:00,80.9,67.1,30.21,SE,141,0.0,0.0,63,0.00,CLR,OVC,0.01,WeatherDisplay:10.37,2013-01-09 23:43:00,
2013-01-09 18:48:00,74.7,67.4,30.24,ENE,61,0.0,3.5,78,0.00,CLR,OVC,0.01,WeatherDisplay:10.37,2013-01-09 23:48:00,
2013-01-09 18:53:00,74.7,67.4,30.24,ENE,61,0.0,3.5,78,0.00,CLR,OVC,0.01,WeatherDisplay:10.37,2013-01-09 23:53:00,
2013-01-09 18:58:00,80.9,67.1,30.21,SE,141,0.0,0.0,63,0.00,CLR,OVC,0.01,WeatherDisplay:10.37,2013-01-09 23:58:00,
2013-01-09 19:03:00,74.4,67.5,30.25,NE,47,1.4,1.4,79,0.00,CLR,OVC,0.01,WeatherDisplay:10.37,2013-01-10 00:03:00,
2013-01-09 19:08:00,80.9,67.1,30.21,SE,141,0.0,0.0,63,0.00,CLR,OVC,0.01,WeatherDisplay:10.37,2013-01-10 00:08:00,
2013-01-09 19:13:00,80.9,67.1,30.21,SE,141,0.0,0.0,63,0.00,CLR,OVC,0.01,WeatherDisplay:10.37,2013-01-10 00:13:00,
2013-01-09 19:18:00,74.0,67.4,30.25,East,88,0.0,0.0,80,0.00,CLR,OVC,0.01,WeatherDisplay:10.37,2013-01-10 00:18:00,
2013-01-09 19:23:00,74.0,67.4,30.25,NE,55,0.0,0.0,80,0.00,CLR,OVC,0.01,WeatherDisplay:10.37,2013-01-10 00:23:00,
2013-01-09 19:28:00,73.9,67.3,30.25,NE,54,0.0,0.0,80,0.00,CLR,OVC,0.01,WeatherDisplay:10.37,2013-01-10 00:28:00,
2013-01-09 19:33:00,73.9,67.3,30.25,ENE,58,0.0,0.0,80,0.00,CLR,OVC,0.01,WeatherDisplay:10.37,2013-01-10 00:33:00,
2013-01-09 19:38:00,73.7,67.1,30.26,ESE,112,0.0,0.0,80,0.00,CLR,OVC,0.01,WeatherDisplay:10.37,2013-01-10 00:38:00,
2013-01-09 19:43:00,73.7,67.5,30.26,East,80,0.0,0.0,81,0.00,CLR,OVC,0.01,WeatherDisplay:10.37,2013-01-10 00:43:00,
2013-01-09 19:48:00,80.9,67.1,30.21,SE,141,0.0,0.0,63,0.00,CLR,OVC,0.01,WeatherDisplay:10.37,2013-01-10 00:48:00,
2013-01-09 19:53:00,80.9,67.1,30.21,SE,141,0.0,0.0,63,0.00,CLR,OVC,0.01,WeatherDisplay:10.37,2013-01-10 00:53:00,
2013-01-09 19:58:00,80.9,67.1,30.21,SE,141,0.0,0.0,63,0.00,CLR,OVC,0.01,WeatherDisplay:10.37,2013-01-10 00:58:00,
2013-01-09 20:03:00,80.9,67.1,30.21,SE,141,0.0,0.0,63,0.00,CLR,OVC,0.01,WeatherDisplay:10.37,2013-01-10 01:03:00,
2013-01-09 20:08:00,73.2,67.0,30.26,ESE,110,0.0,0.0,81,0.00,CLR,OVC,0.01,WeatherDisplay:10.37,2013-01-10 01:08:00,
2013-01-09 20:13:00,80.9,67.1,30.21,SE,141,0.0,0.0,63,0.00,CLR,OVC,0.01,WeatherDisplay:10.37,2013-01-10 01:13:00,
2013-01-09 20:18:00,80.9,67.1,30.21,SE,141,0.0,0.0,63,0.00,CLR,OVC,0.01,WeatherDisplay:10.37,2013-01-10 01:18:00,
2013-01-09 20:23:00,73.2,67.0,30.26,East,97,0.6,0.0,81,0.00,CLR,OVC,0.01,WeatherDisplay:10.37,2013-01-10 01:23:00,
2013-01-09 20:28:00,80.9,67.1,30.21,SE,141,0.0,0.0,63,0.00,CLR,OVC,0.01,WeatherDisplay:10.37,2013-01-10 01:28:00,
2013-01-09 20:33:00,80.9,67.1,30.21,SE,141,0.0,0.0,63,0.00,CLR,OVC,0.01,WeatherDisplay:10.37,2013-01-10 01:33:00,
2013-01-09 20:38:00,73.0,67.2,30.27,East,88,0.0,2.3,82,0.00,CLR,OVC,0.01,WeatherDisplay:10.37,2013-01-10 01:38:00,
2013-01-09 20:43:00,73.0,67.2,30.27,East,88,0.0,2.3,82,0.00,CLR,OVC,0.01,WeatherDisplay:10.37,2013-01-10 01:43:00,
2013-01-09 20:48:00,72.8,67.3,30.27,East,85,2.0,2.3,83,0.00,CLR,OVC,0.01,WeatherDisplay:10.37,2013-01-10 01:48:00,
2013-01-09 20:53:00,80.9,67.1,30.21,SE,141,0.0,0.0,63,0.00,CLR,OVC,0.01,WeatherDisplay:10.37,2013-01-10 01:53:00,
2013-01-09 20:58:00,80.9,67.1,30.21,SE,141,0.0,0.0,63,0.00,CLR,OVC,0.01,WeatherDisplay:10.37,2013-01-10 01:58:00,
2013-01-09 21:03:00,80.9,67.1,30.21,SE,141,0.0,0.0,63,0.00,CLR,OVC,0.01,WeatherDisplay:10.37,2013-01-10 02:03:00,
2013-01-09 21:08:00,72.5,67.4,30.27,NE,54,0.0,1.1,84,0.00,CLR,OVC,0.01,WeatherDisplay:10.37,2013-01-10 02:08:00,
2013-01-09 21:13:00,80.9,67.1,30.21,SE,141,0.0,0.0,63,0.00,CLR,OVC,0.01,WeatherDisplay:10.37,2013-01-10 02:13:00,
2013-01-09 21:18:00,72.3,67.2,30.27,ENE,62,0.9,0.0,84,0.00,CLR,OVC,0.01,WeatherDisplay:10.37,2013-01-10 02:18:00,
2013-01-09 21:23:00,80.9,67.1,30.21,SE,141,0.0,0.0,63,0.00,CLR,OVC,0.01,WeatherDisplay:10.37,2013-01-10 02:23:00,
2013-01-09 21:28:00,80.9,67.1,30.21,SE,141,0.0,0.0,63,0.00,CLR,OVC,0.01,WeatherDisplay:10.37,2013-01-10 02:28:00,
2013-01-09 21:33:00,71.8,67.4,30.28,East,83,0.0,0.0,86,0.00,CLR,OVC,0.01,WeatherDisplay:10.37,2013-01-10 02:33:00,
2013-01-09 21:38:00,71.8,67.4,30.28,East,83,0.0,0.0,86,0.00,CLR,OVC,0.01,WeatherDisplay:10.37,2013-01-10 02:38:00,
2013-01-09 21:43:00,80.9,67.1,30.21,SE,141,0.0,0.0,63,0.00,CLR,OVC,0.01,WeatherDisplay:10.37,2013-01-10 02:43:00,
2013-01-09 21:48:00,80.9,67.1,30.21,SE,141,0.0,0.0,63,0.00,CLR,OVC,0.01,WeatherDisplay:10.37,2013-01-10 02:48:00,
2013-01-09 21:53:00,80.9,67.1,30.21,SE,141,0.0,0.0,63,0.00,CLR,OVC,0.01,WeatherDisplay:10.37,2013-01-10 02:53:00,
2013-01-09 21:58:00,80.9,67.1,30.21,SE,141,0.0,0.0,63,0.00,CLR,OVC,0.01,WeatherDisplay:10.37,2013-01-10 02:58:00,
2013-01-09 22:03:00,71.1,67.0,30.29,East,83,0.0,0.0,87,0.00,CLR,OVC,0.01,WeatherDisplay:10.37,2013-01-10 03:03:00,
2013-01-09 22:08:00,80.9,67.1,30.21,SE,141,0.0,0.0,63,0.00,CLR,OVC,0.01,WeatherDisplay:10.37,2013-01-10 03:08:00,
2013-01-09 22:13:00,80.9,67.1,30.21,SE,141,0.0,0.0,63,0.00,CLR,OVC,0.01,WeatherDisplay:10.37,2013-01-10 03:13:00,
2013-01-09 22:18:00,80.9,67.1,30.21,SE,141,0.0,0.0,63,0.00,CLR,OVC,0.01,WeatherDisplay:10.37,2013-01-10 03:18:00,
2013-01-09 22:23:00,80.9,67.1,30.21,SE,141,0.0,0.0,63,0.00,CLR,OVC,0.01,WeatherDisplay:10.37,2013-01-10 03:23:00,
2013-01-09 22:28:00,80.9,67.1,30.21,SE,141,0.0,0.0,63,0.00,CLR,OVC,0.01,WeatherDisplay:10.37,2013-01-10 03:28:00,
2013-01-09 22:33:00,70.4,66.7,30.29,East,82,0.0,0.0,88,0.00,CLR,OVC,0.01,WeatherDisplay:10.37,2013-01-10 03:33:00,
2013-01-09 22:38:00,80.9,67.1,30.21,SE,141,0.0,0.0,63,0.00,CLR,OVC,0.01,WeatherDisplay:10.37,2013-01-10 03:38:00,
2013-01-09 22:43:00,70.3,66.9,30.29,East,82,0.0,0.0,89,0.00,CLR,OVC,0.01,WeatherDisplay:10.37,2013-01-10 03:43:00,
2013-01-09 22:48:00,69.9,66.5,30.29,East,82,0.0,0.0,89,0.00,CLR,OVC,0.01,WeatherDisplay:10.37,2013-01-10 03:48:00,
2013-01-09 22:53:00,80.9,67.1,30.21,SE,141,0.0,0.0,63,0.00,CLR,OVC,0.01,WeatherDisplay:10.37,2013-01-10 03:53:00,
2013-01-09 22:58:00,80.9,67.1,30.21,SE,141,0.0,0.0,63,0.00,CLR,OVC,0.01,WeatherDisplay:10.37,2013-01-10 03:58:00,
2013-01-09 23:03:00,69.9,66.5,30.29,East,82,0.0,0.0,89,0.00,CLR,OVC,0.01,WeatherDisplay:10.37,2013-01-10 04:03:00,
2013-01-09 23:08:00,80.9,67.1,30.21,SE,141,0.0,0.0,63,0.00,CLR,OVC,0.01,WeatherDisplay:10.37,2013-01-10 04:08:00,
2013-01-09 23:13:00,80.9,67.1,30.21,SE,141,0.0,0.0,63,0.00,CLR,OVC,0.01,WeatherDisplay:10.37,2013-01-10 04:13:00,
2013-01-09 23:18:00,69.1,66.4,30.29,East,80,0.0,0.0,91,0.00,CLR,OVC,0.01,WeatherDisplay:10.37,2013-01-10 04:18:00,
2013-01-09 23:23:00,69.1,66.4,30.29,East,80,0.0,0.0,91,0.00,CLR,OVC,0.01,WeatherDisplay:10.37,2013-01-10 04:23:00,
2013-01-09 23:28:00,68.9,66.2,30.29,East,80,0.0,0.0,91,0.00,CLR,OVC,0.01,WeatherDisplay:10.37,2013-01-10 04:28:00,
2013-01-09 23:33:00,68.8,66.1,30.29,East,80,0.0,0.0,91,0.00,CLR,OVC,0.01,WeatherDisplay:10.37,2013-01-10 04:33:00,
2013-01-09 23:38:00,68.8,66.4,30.29,East,80,0.0,0.0,92,0.00,CLR,OVC,0.01,WeatherDisplay:10.37,2013-01-10 04:38:00,
2013-01-09 23:43:00,80.9,67.1,30.21,SE,141,0.0,0.0,63,0.00,CLR,OVC,0.01,WeatherDisplay:10.37,2013-01-10 04:43:00,
2013-01-09 23:48:00,80.9,67.1,30.21,SE,141,0.0,0.0,63,0.00,CLR,OVC,0.01,WeatherDisplay:10.37,2013-01-10 04:48:00,
2013-01-09 23:53:00,68.6,66.2,30.29,East,80,0.0,0.0,92,0.00,CLR,OVC,0.01,WeatherDisplay:10.37,2013-01-10 04:53:00,
2013-01-09 23:58:00,80.9,67.1,30.21,SE,141,0.0,0.0,63,0.00,CLR,OVC,0.01,WeatherDisplay:10.37,2013-01-10 04:58:00,